Time;durP1;ratioP1;P1;durP2;ratioP2;P2;SDS_P1;SDS_P2;PMS_P1;PMS_P2;Temp;Humidity;BMP_temperature;BMP_pressure;BME280_temperature;BME280_humidity;BME280_pressure;Samples;Min_cycle;Max_cycle;Signal;HPM_P1;HPM_P2
2021/10/25 00:00:19;;;;;;;7.55;5.45;;;;;;;6.00;86.92;101359.28;684142;28;1284;-54
2021/10/25 00:00:40;;;;;;;6.73;5.40;;;;;;;5.98;87.06;101361.81;682736;28;1303;-55
2021/10/25 00:01:00;;;;;;;7.70;5.53;;;;;;;5.92;88.16;101359.03;683978;28;1168;-51
2021/10/25 00:01:21;;;;;;;8.38;5.80;;;;;;;5.91;87.89;101363.34;685854;28;1327;-52
2021/10/25 00:01:41;;;;;;;8.23;5.90;;;;;;;5.92;87.26;101359.03;683000;28;1506;-51
2021/10/25 00:02:04;;;;;;;7.95;5.75;;;;;;;5.93;87.99;101355.59;683140;28;3256;-55
2021/10/25 00:02:24;;;;;;;9.10;5.90;;;;;;;5.89;87.42;101361.56;682303;28;2370;-51
2021/10/25 00:02:44;;;;;;;8.50;5.70;;;;;;;5.86;87.54;101353.69;679796;28;4381;-55
2021/10/25 00:03:05;;;;;;;7.33;5.50;;;;;;;5.90;87.47;101358.13;681234;28;1502;-55
2021/10/25 00:03:25;;;;;;;7.03;5.50;;;;;;;5.88;87.69;101360.66;680137;28;1501;-53
2021/10/25 00:03:45;;;;;;;7.30;5.90;;;;;;;5.85;87.88;101363.19;681540;28;1518;-52
2021/10/25 00:04:06;;;;;;;7.13;5.50;;;;;;;5.80;88.20;101364.78;684484;28;1292;-53
2021/10/25 00:04:26;;;;;;;7.25;5.60;;;;;;;5.86;87.93;101358.91;683995;28;1384;-55
2021/10/25 00:04:47;;;;;;;8.60;5.60;;;;;;;5.95;87.22;101360.00;683309;28;1117;-51
2021/10/25 00:05:08;;;;;;;8.32;5.45;;;;;;;6.01;86.90;101359.31;683473;28;3942;-53
2021/10/25 00:05:28;;;;;;;8.52;5.68;;;;;;;6.10;85.58;101354.31;682421;28;1332;-56
2021/10/25 00:05:49;;;;;;;8.50;5.72;;;;;;;6.07;87.07;101353.41;685292;28;4586;-53
2021/10/25 00:06:09;;;;;;;7.97;5.70;;;;;;;6.01;86.58;101358.41;684755;28;1244;-56
2021/10/25 00:06:29;;;;;;;8.20;5.60;;;;;;;5.90;86.90;101360.72;683534;28;1156;-52
2021/10/25 00:06:50;;;;;;;7.85;5.40;;;;;;;5.88;86.66;101362.38;682588;28;1148;-52
2021/10/25 00:07:10;;;;;;;8.20;5.50;;;;;;;5.95;86.83;101354.81;682641;28;1245;-54
2021/10/25 00:07:31;;;;;;;8.10;5.50;;;;;;;5.99;86.48;101360.97;683022;28;1298;-53
2021/10/25 00:07:53;;;;;;;8.00;5.40;;;;;;;6.02;86.21;101352.38;683563;28;3201;-52
2021/10/25 00:08:14;;;;;;;6.90;5.43;;;;;;;5.99;87.01;101357.50;685203;28;3534;-51
2021/10/25 00:08:35;;;;;;;6.90;5.60;;;;;;;6.03;86.34;101352.44;686690;28;1407;-54
2021/10/25 00:08:56;;;;;;;8.52;5.43;;;;;;;6.14;85.82;101352.69;685303;28;4358;-52
2021/10/25 00:09:16;;;;;;;8.17;5.63;;;;;;;6.11;85.76;101357.81;685974;28;1211;-56
2021/10/25 00:09:36;;;;;;;7.78;5.75;;;;;;;6.01;86.61;101355.81;686580;28;1203;-56
2021/10/25 00:09:57;;;;;;;8.43;5.80;;;;;;;5.90;87.13;101358.13;686104;28;1207;-54
2021/10/25 00:10:18;;;;;;;9.02;5.95;;;;;;;5.84;87.07;101352.78;686235;28;1193;-51
2021/10/25 00:10:38;;;;;;;8.75;5.95;;;;;;;5.88;86.92;101357.19;686467;28;1285;-54
2021/10/25 00:10:59;;;;;;;7.83;5.73;;;;;;;5.90;86.76;101361.59;685167;28;2393;-54
2021/10/25 00:11:20;;;;;;;7.68;5.45;;;;;;;6.01;86.53;101351.53;685938;28;2012;-52
2021/10/25 00:11:41;;;;;;;9.95;5.68;;;;;;;5.89;87.15;101361.56;686053;28;1291;-53
2021/10/25 00:12:02;;;;;;;8.73;5.63;;;;;;;5.79;87.14;101363.03;684819;28;4324;-51
2021/10/25 00:12:23;;;;;;;6.97;5.35;;;;;;;5.77;87.59;101359.50;687097;28;1295;-54
2021/10/25 00:12:46;;;;;;;7.45;5.40;;;;;;;5.84;87.50;101357.97;685506;28;1477;-55
2021/10/25 00:13:07;;;;;;;7.63;5.57;;;;;;;5.87;87.07;101363.22;686419;28;1062;-52
2021/10/25 00:13:27;;;;;;;9.23;5.72;;;;;;;5.82;87.11;101364.84;686352;28;1113;-54
2021/10/25 00:13:48;;;;;;;7.50;5.60;;;;;;;5.87;86.70;101358.03;685759;28;1876;-52
2021/10/25 00:14:10;;;;;;;7.57;5.90;;;;;;;5.86;87.03;101364.09;685426;28;2184;-55
2021/10/25 00:14:32;;;;;;;8.88;5.53;;;;;;;5.86;86.78;101362.34;684593;28;1120;-55
2021/10/25 00:14:54;;;;;;;8.63;5.60;;;;;;;5.88;86.75;101357.19;684396;28;4452;-53
2021/10/25 00:15:14;;;;;;;7.95;5.55;;;;;;;5.87;86.70;101358.03;685755;28;1127;-51
2021/10/25 00:15:36;;;;;;;7.43;5.50;;;;;;;5.85;86.72;101359.72;685321;28;1003;-56
2021/10/25 00:15:57;;;;;;;9.55;5.70;;;;;;;5.88;86.62;101355.47;684709;28;1288;-53
2021/10/25 00:16:17;;;;;;;8.10;5.70;;;;;;;5.92;86.10;101359.91;686104;28;982;-53
2021/10/25 00:16:38;;;;;;;8.13;5.90;;;;;;;6.02;86.15;101354.97;685939;28;1239;-54
2021/10/25 00:16:59;;;;;;;8.25;5.88;;;;;;;6.06;85.54;101357.69;685326;28;3119;-54
2021/10/25 00:17:19;;;;;;;8.13;5.73;;;;;;;6.01;85.93;101359.31;685530;28;3583;-54
2021/10/25 00:17:41;;;;;;;8.07;5.50;;;;;;;5.88;86.22;101362.38;687301;28;1358;-54
2021/10/25 00:18:01;;;;;;;8.53;5.50;;;;;;;5.79;86.67;101361.31;686787;28;4405;-51
2021/10/25 00:18:21;;;;;;;8.33;5.70;;;;;;;5.83;86.60;101358.78;686503;28;1200;-54
2021/10/25 00:18:42;;;;;;;7.55;5.80;;;;;;;5.74;88.10;101360.31;685381;28;1193;-55
2021/10/25 00:19:03;;;;;;;8.83;5.70;;;;;;;5.74;87.03;101354.25;686329;28;1311;-54
2021/10/25 00:19:25;;;;;;;9.02;5.63;;;;;;;5.83;86.94;101358.78;685354;28;1161;-54
2021/10/25 00:19:45;;;;;;;8.38;5.70;;;;;;;5.87;86.51;101358.03;686117;28;3166;-50
2021/10/25 00:20:07;;;;;;;8.23;5.83;;;;;;;5.84;86.24;101360.56;685762;28;3462;-51
2021/10/25 00:20:28;;;;;;;7.90;5.55;;;;;;;5.80;86.85;101357.00;686000;28;1092;-56
2021/10/25 00:20:48;;;;;;;8.52;5.60;;;;;;;5.76;86.95;101358.66;681721;28;4355;-55
2021/10/25 00:21:09;;;;;;;9.23;5.67;;;;;;;5.76;87.26;101363.84;680282;28;1090;-54
2021/10/25 00:21:30;;;;;;;7.85;5.43;;;;;;;5.73;87.07;101358.56;679884;28;1035;-53
2021/10/25 00:21:51;;;;;;;7.95;5.65;;;;;;;5.62;88.27;101359.97;680119;28;1230;-52
2021/10/25 00:22:11;;;;;;;8.30;5.80;;;;;;;5.59;88.29;101359.91;681329;28;1013;-53
2021/10/25 00:22:32;;;;;;;8.53;5.80;;;;;;;5.60;87.68;101357.34;681939;28;1136;-51
2021/10/25 00:22:52;;;;;;;7.43;5.32;;;;;;;5.67;87.79;101358.41;683674;28;3352;-51
2021/10/25 00:23:12;;;;;;;7.00;5.28;;;;;;;5.83;87.51;101358.78;683126;28;2291;-52
2021/10/25 00:23:33;;;;;;;7.40;5.40;;;;;;;5.92;86.70;101353.84;683483;28;1255;-53
2021/10/25 00:23:53;;;;;;;8.53;5.53;;;;;;;6.00;85.88;101357.53;686006;28;4361;-54
2021/10/25 00:24:14;;;;;;;7.95;5.63;;;;;;;6.03;85.41;101355.03;683836;28;1248;-51
2021/10/25 00:24:34;;;;;;;7.43;5.38;;;;;;;5.97;85.19;101352.25;683763;28;1224;-55
2021/10/25 00:24:55;;;;;;;7.20;5.80;;;;;;;5.97;85.23;101355.75;683843;28;1081;-51
2021/10/25 00:25:15;;;;;;;7.90;5.57;;;;;;;6.02;85.41;101361.03;684687;28;1196;-55
2021/10/25 00:25:36;;;;;;;7.43;5.47;;;;;;;6.02;85.21;101350.66;682229;28;1208;-52
2021/10/25 00:25:57;;;;;;;6.78;5.05;;;;;;;5.99;85.63;101345.41;681727;28;4547;-55
2021/10/25 00:26:17;;;;;;;8.55;5.43;;;;;;;5.96;85.60;101353.94;686137;28;980;-52
2021/10/25 00:26:37;;;;;;;8.73;5.63;;;;;;;5.96;85.88;101353.09;683585;28;1507;-52
2021/10/25 00:26:59;;;;;;;8.85;5.50;;;;;;;5.95;86.12;101354.81;682528;28;4320;-53
2021/10/25 00:27:20;;;;;;;8.97;5.60;;;;;;;5.95;85.58;101353.91;684327;28;1256;-53
2021/10/25 00:27:40;;;;;;;8.50;5.37;;;;;;;5.97;85.48;101352.25;682257;28;1020;-52
2021/10/25 00:28:01;;;;;;;8.67;5.33;;;;;;;6.04;85.63;101349.00;680965;28;1271;-51
2021/10/25 00:28:21;;;;;;;6.70;5.13;;;;;;;5.94;85.83;101346.97;682053;28;1162;-55
2021/10/25 00:28:41;;;;;;;6.90;5.47;;;;;;;5.78;86.17;101346.56;681829;28;3119;-54
2021/10/25 00:29:03;;;;;;;8.25;5.78;;;;;;;5.64;86.76;101347.94;679266;28;3647;-56
2021/10/25 00:29:24;;;;;;;8.35;5.68;;;;;;;5.53;87.10;101351.97;676406;29;1261;-55
2021/10/25 00:29:44;;;;;;;8.90;6.07;;;;;;;5.42;87.82;101349.94;675097;29;4479;-53
2021/10/25 00:30:05;;;;;;;8.50;5.80;;;;;;;5.36;89.13;101357.56;670839;29;1448;-55
2021/10/25 00:30:26;;;;;;;8.45;5.78;;;;;;;5.39;88.14;101356.78;675137;29;1396;-53
2021/10/25 00:30:46;;;;;;;9.02;5.55;;;;;;;5.51;87.98;101351.03;675367;29;1306;-54
2021/10/25 00:31:07;;;;;;;8.27;5.40;;;;;;;5.52;87.36;101358.84;676783;29;1190;-54
2021/10/25 00:31:28;;;;;;;8.75;5.75;;;;;;;5.55;87.45;101355.47;678295;28;1911;-55
2021/10/25 00:31:48;;;;;;;7.90;5.55;;;;;;;5.62;87.10;101354.78;681118;28;3762;-52
2021/10/25 00:32:09;;;;;;;8.30;5.80;;;;;;;5.60;87.12;101353.88;680601;28;3800;-54
2021/10/25 00:32:30;;;;;;;8.43;5.63;;;;;;;5.61;87.12;101355.66;684534;28;1074;-54
2021/10/25 00:32:50;;;;;;;8.37;5.53;;;;;;;5.72;86.82;101356.81;682898;28;4343;-53
2021/10/25 00:33:10;;;;;;;8.37;5.43;;;;;;;5.82;86.21;101357.06;683710;28;1180;-53
2021/10/25 00:33:31;;;;;;;8.17;5.30;;;;;;;5.79;86.06;101353.53;684656;28;1144;-52
2021/10/25 00:33:52;;;;;;;7.85;5.60;;;;;;;5.69;86.14;101356.72;683651;28;1196;-52
2021/10/25 00:34:14;;;;;;;8.10;5.80;;;;;;;5.76;86.14;101358.66;684597;28;1369;-56
2021/10/25 00:34:34;;;;;;;7.32;5.47;;;;;;;5.84;86.14;101352.78;678060;28;3209;-54
2021/10/25 00:34:55;;;;;;;6.65;5.05;;;;;;;5.85;86.06;101349.34;677722;28;3576;-55
2021/10/25 00:35:15;;;;;;;7.50;5.30;;;;;;;5.79;86.01;101355.25;679711;28;1491;-54
2021/10/25 00:35:35;;;;;;;7.78;5.38;;;;;;;5.81;86.03;101356.16;678919;28;1046;-51
2021/10/25 00:35:57;;;;;;;7.63;5.43;;;;;;;5.78;86.43;101350.91;678547;28;4350;-53
2021/10/25 00:36:17;;;;;;;8.02;5.28;;;;;;;5.85;85.79;101352.81;678868;28;1260;-54
2021/10/25 00:36:38;;;;;;;8.43;5.80;;;;;;;5.78;86.07;101351.75;684005;28;1228;-55
2021/10/25 00:37:02;;;;;;;8.45;5.53;;;;;;;5.73;87.32;101355.06;683720;28;1311;-54
2021/10/25 00:37:23;;;;;;;8.02;5.55;;;;;;;5.65;87.46;101354.00;680873;28;1625;-54
2021/10/25 00:37:44;;;;;;;7.97;5.67;;;;;;;5.65;86.97;101357.50;680164;28;3728;-51
2021/10/25 00:38:08;;;;;;;7.45;5.20;;;;;;;5.76;86.49;101353.47;681982;28;1120;-51
2021/10/25 00:38:28;;;;;;;7.70;5.23;;;;;;;5.84;85.86;101355.38;682971;28;1167;-54
2021/10/25 00:38:48;;;;;;;8.40;5.35;;;;;;;5.86;85.91;101353.69;680745;28;4339;-53
2021/10/25 00:39:09;;;;;;;8.00;5.33;;;;;;;5.83;86.01;101353.59;681067;28;1185;-53
2021/10/25 00:39:31;;;;;;;9.15;5.32;;;;;;;5.86;85.80;101358.91;679544;28;1141;-50
2021/10/25 00:39:51;;;;;;;8.40;5.50;;;;;;;5.84;85.79;101353.63;681190;28;1143;-51
2021/10/25 00:40:12;;;;;;;7.73;5.60;;;;;;;5.88;85.57;101354.59;680540;28;1074;-51
2021/10/25 00:40:32;;;;;;;7.55;5.55;;;;;;;5.91;85.47;101349.47;681267;28;3029;-53
2021/10/25 00:40:53;;;;;;;8.40;5.40;;;;;;;5.96;85.33;101353.09;680471;28;3518;-54
2021/10/25 00:41:14;;;;;;;7.10;5.20;;;;;;;5.89;85.88;101351.19;681756;28;1074;-52
2021/10/25 00:41:34;;;;;;;7.70;5.50;;;;;;;5.82;86.33;101349.28;681357;28;1414;-55
2021/10/25 00:41:55;;;;;;;7.25;5.70;;;;;;;5.88;85.54;101352.00;680909;28;4402;-50
2021/10/25 00:42:15;;;;;;;6.73;5.23;;;;;;;5.90;85.54;101353.81;682000;28;1117;-54
2021/10/25 00:42:36;;;;;;;7.05;5.40;;;;;;;5.88;85.70;101352.00;681662;28;1189;-50
2021/10/25 00:42:57;;;;;;;7.22;5.53;;;;;;;5.87;85.60;101352.84;684279;28;1154;-54
2021/10/25 00:43:17;;;;;;;7.47;5.50;;;;;;;5.91;85.44;101352.97;684538;28;1129;-53
2021/10/25 00:43:38;;;;;;;7.22;5.30;;;;;;;5.91;85.75;101352.09;685859;28;3641;-50
2021/10/25 00:43:58;;;;;;;7.70;5.47;;;;;;;5.77;86.23;101349.13;686407;28;1216;-54
2021/10/25 00:44:20;;;;;;;8.38;5.30;;;;;;;5.67;86.04;101347.16;685798;28;1058;-51
2021/10/25 00:44:41;;;;;;;8.02;5.40;;;;;;;5.68;86.28;101349.78;686546;28;1330;-51
2021/10/25 00:45:01;;;;;;;7.70;5.45;;;;;;;5.84;86.11;101344.97;681444;28;4568;-53
2021/10/25 00:45:22;;;;;;;8.17;5.10;;;;;;;5.94;85.37;101352.16;682288;28;1296;-50
2021/10/25 00:45:43;;;;;;;8.07;5.05;;;;;;;5.99;85.30;101345.41;678632;28;1517;-50
2021/10/25 00:46:06;;;;;;;7.65;5.10;;;;;;;5.93;84.96;101346.09;679520;28;1439;-54
2021/10/25 00:46:27;;;;;;;7.20;5.10;;;;;;;5.88;85.17;101346.81;678753;28;3489;-51
2021/10/25 00:46:47;;;;;;;7.25;5.63;;;;;;;5.78;86.15;101351.75;677613;28;3730;-51
2021/10/25 00:47:08;;;;;;;7.93;5.80;;;;;;;5.75;86.47;101356.88;679558;28;1114;-54
2021/10/25 00:47:28;;;;;;;7.50;5.43;;;;;;;5.67;87.00;101353.22;676311;29;1150;-52
2021/10/25 00:47:49;;;;;;;7.70;5.63;;;;;;;5.58;87.78;101342.56;676199;29;4503;-53
2021/10/25 00:48:09;;;;;;;7.70;5.70;;;;;;;5.50;88.10;101349.28;674224;29;1373;-51
2021/10/25 00:48:30;;;;;;;7.80;5.75;;;;;;;5.54;87.49;101353.69;673420;29;1155;-51
2021/10/25 00:48:52;;;;;;;7.60;5.38;;;;;;;5.60;87.10;101348.69;678241;28;1145;-53
2021/10/25 00:49:13;;;;;;;8.17;5.40;;;;;;;5.59;87.00;101352.13;681130;28;2204;-54
2021/10/25 00:49:33;;;;;;;7.67;5.13;;;;;;;5.55;87.59;101350.28;680402;28;2408;-52
2021/10/25 00:49:54;;;;;;;7.50;5.50;;;;;;;5.43;88.46;101353.44;680274;28;3598;-54
2021/10/25 00:50:14;;;;;;;7.80;5.80;;;;;;;5.37;88.73;101346.38;684773;28;1346;-52
2021/10/25 00:50:35;;;;;;;8.63;5.80;;;;;;;5.35;88.57;101349.75;681379;28;1329;-54
2021/10/25 00:50:55;;;;;;;8.30;5.30;;;;;;;5.33;88.88;101354.91;680700;28;4413;-54
2021/10/25 00:51:16;;;;;;;7.17;5.30;;;;;;;5.30;89.05;101354.78;682054;28;1911;-54
2021/10/25 00:51:37;;;;;;;7.50;5.30;;;;;;;5.35;88.72;101350.63;681671;28;1298;-52
2021/10/25 00:51:57;;;;;;;6.95;5.50;;;;;;;5.37;88.15;101348.97;682104;28;1236;-55
2021/10/25 00:52:19;;;;;;;7.23;5.40;;;;;;;5.38;88.21;101350.69;681972;28;1196;-53
2021/10/25 00:52:40;;;;;;;7.53;5.30;;;;;;;5.36;88.16;101347.19;682901;28;4255;-51
2021/10/25 00:53:01;;;;;;;7.70;5.47;;;;;;;5.31;88.94;101353.97;682722;28;1671;-54
2021/10/25 00:53:21;;;;;;;8.97;5.73;;;;;;;5.35;88.56;101349.75;680155;28;1511;-54
2021/10/25 00:53:42;;;;;;;8.57;5.70;;;;;;;5.35;89.02;101353.22;678441;29;1725;-53
2021/10/25 00:54:03;;;;;;;8.00;5.70;;;;;;;5.30;89.34;101354.78;676552;29;6016;-51
2021/10/25 00:54:23;;;;;;;7.97;5.70;;;;;;;5.28;89.68;101353.88;674307;29;1407;-51
2021/10/25 00:54:44;;;;;;;8.25;5.75;;;;;;;5.35;88.30;101355.81;674058;29;1086;-50
2021/10/25 00:55:06;;;;;;;7.32;5.30;;;;;;;5.49;88.13;101357.91;676465;29;1295;-53
2021/10/25 00:55:27;;;;;;;6.82;5.00;;;;;;;5.54;88.24;101356.31;676497;29;3128;-50
2021/10/25 00:55:48;;;;;;;7.20;5.30;;;;;;;5.60;87.33;101353.88;676363;29;1265;-52
2021/10/25 00:56:09;;;;;;;7.53;5.53;;;;;;;5.51;88.20;101348.44;676969;29;2909;-51
2021/10/25 00:56:32;;;;;;;7.45;5.40;;;;;;;5.49;88.09;101348.41;680202;28;1020;-52
2021/10/25 00:56:53;;;;;;;7.68;5.40;;;;;;;5.50;87.25;101349.28;679861;28;4364;-53
2021/10/25 00:57:13;;;;;;;7.83;5.37;;;;;;;5.52;87.38;101355.41;679732;28;1262;-53
2021/10/25 00:57:35;;;;;;;7.85;5.45;;;;;;;5.45;88.22;101352.66;681372;28;1343;-54
2021/10/25 00:57:56;;;;;;;8.85;5.40;;;;;;;5.42;88.30;101355.13;682626;28;1154;-52
2021/10/25 00:58:17;;;;;;;7.35;5.28;;;;;;;5.44;88.18;101345.69;682711;28;3157;-53
2021/10/25 00:58:37;;;;;;;7.23;5.70;;;;;;;5.37;89.25;101348.97;679254;28;3550;-53
2021/10/25 00:58:59;;;;;;;8.23;5.72;;;;;;;5.31;89.57;101348.78;682916;28;1150;-54
2021/10/25 00:59:20;;;;;;;8.17;5.57;;;;;;;5.24;90.18;101349.44;683962;28;942;-52
2021/10/25 00:59:40;;;;;;;8.27;5.73;;;;;;;5.20;90.65;101350.19;683778;28;1225;-53
2021/10/25 01:00:03;;;;;;;8.73;6.03;;;;;;;5.25;89.51;101352.09;681211;28;4485;-51
2021/10/25 01:00:24;;;;;;;7.75;5.70;;;;;;;5.28;89.69;101351.28;678876;29;1318;-51
2021/10/25 01:00:44;;;;;;;7.97;5.68;;;;;;;5.28;89.57;101348.69;679001;28;1041;-52
2021/10/25 01:01:06;;;;;;;9.00;5.90;;;;;;;5.22;90.10;101351.09;676217;29;1225;-51
2021/10/25 01:01:27;;;;;;;7.97;5.60;;;;;;;5.16;90.00;101354.41;676156;29;3656;-54
2021/10/25 01:01:48;;;;;;;8.23;5.80;;;;;;;5.12;90.19;101355.16;679065;29;1374;-54
2021/10/25 01:02:08;;;;;;;8.60;5.88;;;;;;;5.11;90.12;101354.28;680819;28;1165;-52
2021/10/25 01:02:29;;;;;;;8.63;5.87;;;;;;;5.06;91.63;101350.69;682736;28;1078;-52
2021/10/25 01:02:50;;;;;;;8.70;5.60;;;;;;;5.08;91.06;101356.78;682438;28;4437;-55
2021/10/25 01:03:10;;;;;;;8.30;5.80;;;;;;;5.06;91.64;101357.59;679409;29;1455;-54
2021/10/25 01:03:31;;;;;;;8.38;5.78;;;;;;;5.16;90.55;101349.22;679431;29;1464;-51
2021/10/25 01:03:52;;;;;;;8.00;5.22;;;;;;;5.31;89.34;101353.09;679688;28;1028;-51
2021/10/25 01:04:13;;;;;;;8.35;5.38;;;;;;;5.33;89.23;101352.31;675799;29;3462;-55
2021/10/25 01:04:34;;;;;;;8.00;5.47;;;;;;;5.26;90.01;101355.53;676204;29;3696;-52
2021/10/25 01:04:55;;;;;;;7.80;5.40;;;;;;;5.23;89.91;101350.28;675865;29;1110;-53
2021/10/25 01:05:15;;;;;;;7.45;5.43;;;;;;;5.21;90.65;101359.75;673654;29;1095;-53
2021/10/25 01:05:37;;;;;;;9.20;5.75;;;;;;;5.24;90.16;101354.63;675820;29;1564;-54
2021/10/25 01:05:57;;;;;;;8.73;5.43;;;;;;;5.25;89.93;101352.09;675793;29;4924;-53
2021/10/25 01:06:18;;;;;;;7.85;5.55;;;;;;;5.22;90.76;101356.28;680123;28;1155;-50
2021/10/25 01:06:39;;;;;;;8.03;5.60;;;;;;;5.23;90.07;101355.47;678900;28;1261;-55
2021/10/25 01:07:00;;;;;;;8.27;5.82;;;;;;;5.16;91.15;101354.41;679413;28;1075;-56
2021/10/25 01:07:21;;;;;;;8.90;5.80;;;;;;;5.14;91.61;101355.19;681220;28;4058;-55
2021/10/25 01:07:42;;;;;;;8.80;6.18;;;;;;;5.11;91.95;101362.06;683591;28;1215;-52
2021/10/25 01:08:04;;;;;;;7.97;5.70;;;;;;;5.09;92.18;101355.94;682241;28;1201;-50
2021/10/25 01:08:26;;;;;;;7.57;5.75;;;;;;;5.09;91.64;101349.88;681367;28;1018;-51
2021/10/25 01:08:48;;;;;;;7.35;5.45;;;;;;;5.20;90.86;101352.78;683388;28;4371;-54
2021/10/25 01:09:09;;;;;;;8.05;5.22;;;;;;;5.26;89.71;101351.25;685204;28;1149;-53
2021/10/25 01:09:33;;;;;;;8.85;5.15;;;;;;;5.23;90.94;101356.38;680017;28;1148;-53
2021/10/25 01:09:55;;;;;;;9.07;5.70;;;;;;;5.21;91.53;101357.16;682518;28;1486;-53
2021/10/25 01:10:15;;;;;;;8.90;6.07;;;;;;;5.21;90.54;101358.00;681833;28;3647;-51
2021/10/25 01:10:37;;;;;;;8.00;5.93;;;;;;;5.21;90.75;101352.84;681617;28;3926;-52
2021/10/25 01:10:59;;;;;;;7.47;5.50;;;;;;;5.19;91.17;101353.63;681834;28;1220;-52
2021/10/25 01:11:20;;;;;;;7.85;5.65;;;;;;;5.19;91.15;101353.63;679140;28;1922;-54
2021/10/25 01:11:41;;;;;;;8.25;5.63;;;;;;;5.23;90.49;101351.19;675091;29;1352;-52
2021/10/25 01:12:04;;;;;;;8.10;5.53;;;;;;;5.23;90.74;101346.00;676108;29;4953;-53
2021/10/25 01:12:25;;;;;;;10.25;5.72;;;;;;;5.21;91.86;101346.78;678450;29;1247;-54
2021/10/25 01:12:46;;;;;;;10.05;5.93;;;;;;;5.21;91.53;101357.16;675867;29;1327;-51
2021/10/25 01:13:06;;;;;;;8.10;5.57;;;;;;;5.20;91.22;101357.97;677024;28;3708;-51
2021/10/25 01:13:28;;;;;;;7.35;5.78;;;;;;;5.21;90.67;101346.78;677451;28;4547;-52
2021/10/25 01:13:48;;;;;;;7.53;5.70;;;;;;;5.17;92.06;101352.72;679902;28;1264;-52
2021/10/25 01:14:09;;;;;;;7.07;5.60;;;;;;;5.15;92.18;101351.78;679762;29;1348;-50
2021/10/25 01:14:29;;;;;;;7.68;5.72;;;;;;;5.17;91.78;101350.97;678588;28;1057;-51
2021/10/25 01:14:50;;;;;;;7.20;5.63;;;;;;;5.17;91.06;101343.22;680010;28;4702;-51
2021/10/25 01:15:10;;;;;;;8.10;5.95;;;;;;;5.12;91.99;101352.56;680931;28;1578;-52
2021/10/25 01:15:32;;;;;;;8.13;5.65;;;;;;;5.09;91.61;101342.97;680740;28;1464;-53
2021/10/25 01:15:52;;;;;;;8.98;5.72;;;;;;;5.08;91.99;101354.22;679302;28;1388;-53
2021/10/25 01:16:13;;;;;;;8.20;5.70;;;;;;;5.06;92.76;101353.25;681960;28;3330;-54
2021/10/25 01:16:33;;;;;;;8.50;6.10;;;;;;;5.02;93.17;101354.00;679127;28;1272;-51
2021/10/25 01:16:54;;;;;;;9.32;6.65;;;;;;;5.00;93.91;101355.69;675278;29;1903;-51
2021/10/25 01:17:14;;;;;;;11.70;6.67;;;;;;;5.00;93.53;101352.19;677846;29;821;-53
2021/10/25 01:17:36;;;;;;;10.48;6.32;;;;;;;5.00;93.07;101352.19;676523;29;1333;-54
2021/10/25 01:17:58;;;;;;;8.23;6.05;;;;;;;4.99;94.03;101347.88;679011;28;5546;-53
2021/10/25 01:18:19;;;;;;;9.07;6.00;;;;;;;5.00;93.85;101354.78;680604;28;1185;-53
2021/10/25 01:18:39;;;;;;;8.97;6.43;;;;;;;4.99;94.24;101350.47;679477;28;1301;-51
2021/10/25 01:19:01;;;;;;;8.63;6.53;;;;;;;5.01;93.41;101352.28;680574;28;1913;-54
2021/10/25 01:19:21;;;;;;;7.77;6.13;;;;;;;5.07;92.64;101357.63;678757;29;3684;-54
2021/10/25 01:19:41;;;;;;;7.65;5.60;;;;;;;5.08;92.31;101351.63;675503;29;1332;-52
2021/10/25 01:20:04;;;;;;;8.38;5.82;;;;;;;5.13;92.61;101358.63;671025;29;1818;-53
2021/10/25 01:20:29;;;;;;;9.02;5.65;;;;;;;5.14;92.21;101347.41;672601;29;1090;-56
2021/10/25 01:20:49;;;;;;;8.77;5.65;;;;;;;5.16;91.79;101344.03;675037;29;5246;-52
2021/10/25 01:21:15;;;;;;;8.55;5.63;;;;;;;5.14;92.67;101350.91;678068;29;1782;-52
2021/10/25 01:21:36;;;;;;;8.65;5.95;;;;;;;5.13;92.92;101348.28;675719;29;1153;-51
2021/10/25 01:21:57;;;;;;;9.17;5.97;;;;;;;5.11;92.94;101346.50;679035;28;1170;-56
2021/10/25 01:22:24;;;;;;;8.48;5.74;;;;;;;5.13;92.96;101350.88;681453;28;2311;-55
2021/10/25 01:22:45;;;;;;;8.65;5.95;;;;;;;5.12;93.37;101347.38;679953;28;1300;-51
2021/10/25 01:23:07;;;;;;;7.70;6.20;;;;;;;5.10;93.22;101349.94;682502;28;1197;-51
2021/10/25 01:23:28;;;;;;;7.43;6.20;;;;;;;5.08;93.54;101351.63;680221;28;1268;-51
2021/10/25 01:23:50;;;;;;;8.45;6.10;;;;;;;5.06;93.74;101342.91;679208;28;4475;-53
2021/10/25 01:24:11;;;;;;;8.02;5.90;;;;;;;5.06;94.18;101348.09;680913;28;1475;-53
2021/10/25 01:24:31;;;;;;;7.90;5.72;;;;;;;5.05;93.69;101346.34;677389;29;1934;-51
2021/10/25 01:24:53;;;;;;;7.43;5.70;;;;;;;4.99;93.90;101345.28;677473;29;1388;-54
2021/10/25 01:25:14;;;;;;;7.75;5.85;;;;;;;4.97;93.93;101346.94;675224;29;3662;-54
2021/10/25 01:25:34;;;;;;;8.00;6.18;;;;;;;4.98;94.14;101348.69;675494;28;2190;-52
2021/10/25 01:25:56;;;;;;;8.13;5.90;;;;;;;4.98;93.70;101343.53;676651;29;2158;-53
2021/10/25 01:26:16;;;;;;;8.32;5.90;;;;;;;4.92;93.97;101342.50;677874;28;1386;-51
2021/10/25 01:26:40;;;;;;;10.07;6.03;;;;;;;4.89;93.97;101344.16;680210;28;1340;-52
2021/10/25 01:27:01;;;;;;;9.52;5.60;;;;;;;4.92;94.07;101339.03;678927;28;4440;-51
2021/10/25 01:27:22;;;;;;;8.82;5.95;;;;;;;4.92;93.59;101344.22;678991;29;1414;-50
2021/10/25 01:27:50;;;;;;;8.30;6.00;;;;;;;4.95;93.27;101344.31;678937;28;1401;-52
2021/10/25 01:28:12;;;;;;;9.52;6.20;;;;;;;4.92;93.67;101341.63;679605;28;3072;-53
2021/10/25 01:28:34;;;;;;;8.98;6.15;;;;;;;4.92;93.66;101346.81;678188;29;1281;-51
2021/10/25 01:28:55;;;;;;;7.90;6.10;;;;;;;4.98;92.94;101351.28;679799;28;1159;-50
2021/10/25 01:29:19;;;;;;;7.20;5.47;;;;;;;5.07;91.71;101346.38;683240;28;1193;-49
2021/10/25 01:29:39;;;;;;;7.55;5.13;;;;;;;5.08;91.80;101354.22;680607;28;2160;-51
2021/10/25 01:30:00;;;;;;;7.28;5.40;;;;;;;5.09;91.81;101342.97;679637;28;4610;-52
2021/10/25 01:30:21;;;;;;;8.70;5.77;;;;;;;5.08;92.27;101346.44;678615;28;1130;-53
2021/10/25 01:30:41;;;;;;;8.40;5.72;;;;;;;5.08;92.54;101346.44;676000;29;1328;-54
2021/10/25 01:31:02;;;;;;;8.40;5.90;;;;;;;5.07;92.57;101344.66;673240;29;1906;-49
2021/10/25 01:31:23;;;;;;;8.65;5.57;;;;;;;5.04;92.40;101347.19;672836;29;1970;-49
2021/10/25 01:31:44;;;;;;;7.80;5.70;;;;;;;5.01;93.40;101344.50;675237;29;1176;-49
2021/10/25 01:32:05;;;;;;;8.85;6.10;;;;;;;4.99;93.41;101342.69;676396;29;1340;-51
2021/10/25 01:32:25;;;;;;;8.15;6.18;;;;;;;5.03;92.42;101345.41;677477;29;1270;-50
2021/10/25 01:32:47;;;;;;;7.60;5.82;;;;;;;5.09;92.01;101353.34;673007;29;4447;-50
2021/10/25 01:33:18;;;;;;;8.07;5.60;;;;;;;5.13;92.18;101348.28;677108;29;1439;-53
2021/10/25 01:33:39;;;;;;;8.10;5.80;;;;;;;5.13;93.04;101343.09;674819;29;1502;-50
2021/10/25 01:34:02;;;;;;;9.00;6.05;;;;;;;5.09;93.06;101342.97;675485;29;3543;-52
2021/10/25 01:34:26;;;;;;;8.77;6.03;;;;;;;5.15;91.97;101341.41;675331;29;3645;-49
2021/10/25 01:34:47;;;;;;;7.03;5.30;;;;;;;5.20;91.68;101339.84;677392;29;1514;-49
2021/10/25 01:35:07;;;;;;;7.82;5.43;;;;;;;5.20;91.24;101347.59;677284;29;1304;-53
2021/10/25 01:35:28;;;;;;;8.10;5.57;;;;;;;5.19;91.24;101351.94;673833;29;2044;-51
2021/10/25 01:35:49;;;;;;;7.73;5.40;;;;;;;5.19;91.26;101343.25;672282;29;4934;-52
2021/10/25 01:36:11;;;;;;;8.43;5.50;;;;;;;5.20;91.16;101339.84;674816;29;1408;-51
2021/10/25 01:36:33;;;;;;;8.30;5.65;;;;;;;5.19;91.51;101343.25;673737;29;1381;-52
2021/10/25 01:36:54;;;;;;;8.33;5.60;;;;;;;5.16;91.43;101338.84;673760;29;3020;-53
2021/10/25 01:37:15;;;;;;;9.30;6.07;;;;;;;5.15;92.26;101349.19;673520;29;3627;-50
2021/10/25 01:37:37;;;;;;;9.52;5.93;;;;;;;5.10;92.29;101342.16;670748;29;1743;-50
2021/10/25 01:38:00;;;;;;;8.55;5.90;;;;;;;5.11;92.04;101343.91;674074;29;1188;-52
2021/10/25 01:38:21;;;;;;;8.23;6.18;;;;;;;5.10;92.42;101343.88;676862;29;1755;-54
2021/10/25 01:38:43;;;;;;;7.45;5.78;;;;;;;5.07;92.99;101344.66;678259;28;4438;-51
2021/10/25 01:39:07;;;;;;;8.75;6.30;;;;;;;5.12;91.88;101342.19;678853;29;1455;-50
2021/10/25 01:39:28;;;;;;;7.80;5.75;;;;;;;5.17;91.60;101347.53;679235;29;1292;-51
2021/10/25 01:39:49;;;;;;;7.88;5.80;;;;;;;5.14;92.45;101337.94;678277;29;2078;-51
2021/10/25 01:40:11;;;;;;;7.95;6.10;;;;;;;5.13;92.87;101343.09;676101;29;3726;-51
2021/10/25 01:40:31;;;;;;;8.05;6.00;;;;;;;5.11;93.43;101340.47;670867;29;2120;-52
2021/10/25 01:40:54;;;;;;;9.23;6.15;;;;;;;5.09;91.89;101342.97;672468;29;3717;-51
2021/10/25 01:41:15;;;;;;;7.57;5.50;;;;;;;5.16;91.74;101344.03;674324;29;1456;-51
2021/10/25 01:41:36;;;;;;;8.70;5.68;;;;;;;5.14;92.32;101337.06;674575;29;1516;-50
2021/10/25 01:41:59;;;;;;;9.15;6.05;;;;;;;5.06;92.84;101342.91;676236;29;4476;-51